Time;durP1;ratioP1;P1;durP2;ratioP2;P2;SDS_P1;SDS_P2;PMS_P1;PMS_P2;Temp;Humidity;BMP_temperature;BMP_pressure;BME280_temperature;BME280_humidity;BME280_pressure;Samples;Min_cycle;Max_cycle;Signal;HPM_P1;HPM_P2
2022/10/14 00:01:07;;;;;;;;;17.00;15.75;;;;;;;;5025721;27;8847;-76
2022/10/14 00:03:36;;;;;;;;;10.00;9.50;;;;;;;;5029913;27;8853;-76
2022/10/14 00:06:05;;;;;;;;;18.00;15.75;;;;;;;;5024242;27;8868;-76
2022/10/14 00:08:33;;;;;;;;;16.00;15.00;;;;;;;;5035747;27;8984;-77
2022/10/14 00:11:05;;;;;;;;;15.25;14.25;;;;;;;;5031972;27;8877;-77
2022/10/14 00:13:33;;;;;;;;;14.50;14.50;;;;;;;;5030073;27;8886;-76
2022/10/14 00:16:03;;;;;;;;;16.50;15.50;;;;;;;;5027893;27;8849;-77
2022/10/14 00:18:31;;;;;;;;;18.25;16.50;;;;;;;;5029588;27;8833;-77
2022/10/14 00:21:02;;;;;;;;;12.00;12.00;;;;;;;;5033818;27;8841;-77
2022/10/14 00:23:29;;;;;;;;;15.75;14.50;;;;;;;;5023182;28;8868;-76
2022/10/14 00:25:56;;;;;;;;;16.25;15.25;;;;;;;;5044931;27;8850;-76
2022/10/14 00:28:24;;;;;;;;;15.25;14.00;;;;;;;;5025051;27;9000;-76
2022/10/14 00:30:55;;;;;;;;;17.25;14.75;;;;;;;;5030092;27;8879;-76
2022/10/14 00:33:25;;;;;;;;;22.25;17.25;;;;;;;;5032668;27;8851;-76
2022/10/14 00:35:57;;;;;;;;;16.25;14.25;;;;;;;;5041932;27;8815;-77
2022/10/14 00:38:25;;;;;;;;;16.00;14.75;;;;;;;;5032771;27;8854;-77
2022/10/14 00:40:53;;;;;;;;;15.00;13.50;;;;;;;;5023068;27;8892;-77
2022/10/14 00:43:22;;;;;;;;;14.00;14.00;;;;;;;;5021682;27;8964;-78
2022/10/14 00:45:49;;;;;;;;;14.25;14.25;;;;;;;;5024542;27;8841;-77
2022/10/14 00:48:17;;;;;;;;;16.00;15.00;;;;;;;;5038736;27;8865;-77
2022/10/14 00:50:49;;;;;;;;;16.75;16.25;;;;;;;;5033233;27;8829;-76
2022/10/14 00:53:16;;;;;;;;;16.50;16.50;;;;;;;;5046150;27;8977;-77
2022/10/14 00:55:44;;;;;;;;;14.75;14.75;;;;;;;;5035052;27;9611;-77
2022/10/14 00:58:14;;;;;;;;;12.50;12.50;;;;;;;;5015463;27;8854;-77
2022/10/14 01:00:42;;;;;;;;;18.00;16.75;;;;;;;;5025048;27;8979;-76
2022/10/14 01:03:11;;;;;;;;;14.25;12.50;;;;;;;;5021378;27;8855;-77
2022/10/14 01:05:49;;;;;;;;;13.25;12.00;;;;;;;;5019446;27;8874;-77
2022/10/14 01:08:25;;;;;;;;;20.25;16.25;;;;;;;;5015537;27;8861;-76
2022/10/14 01:11:00;;;;;;;;;14.50;13.25;;;;;;;;5027143;27;8937;-76
2022/10/14 01:13:31;;;;;;;;;16.25;13.50;;;;;;;;5038556;27;8900;-76
2022/10/14 01:16:06;;;;;;;;;18.50;15.00;;;;;;;;5023621;27;8995;-76
2022/10/14 01:18:47;;;;;;;;;15.75;15.75;;;;;;;;5025961;27;9208;-76
2022/10/14 01:21:24;;;;;;;;;15.00;13.00;;;;;;;;5027531;27;8861;-76
2022/10/14 01:24:18;;;;;;;;;18.00;16.50;;;;;;;;5027097;27;9560;-77
2022/10/14 01:27:11;;;;;;;;;15.75;14.25;;;;;;;;5032314;27;8874;-77
2022/10/14 01:30:05;;;;;;;;;17.75;14.75;;;;;;;;5046753;27;8837;-76
2022/10/14 01:32:36;;;;;;;;;15.75;15.00;;;;;;;;5023688;27;8953;-77
2022/10/14 01:35:11;;;;;;;;;12.25;12.25;;;;;;;;5049494;27;9268;-76
2022/10/14 01:37:44;;;;;;;;;12.75;11.75;;;;;;;;5027342;27;8829;-76
2022/10/14 01:40:19;;;;;;;;;14.25;13.25;;;;;;;;5034299;27;9616;-77
2022/10/14 01:42:47;;;;;;;;;15.00;15.00;;;;;;;;5033376;27;8887;-77
2022/10/14 01:45:20;;;;;;;;;14.50;14.25;;;;;;;;5055619;27;8963;-77
2022/10/14 01:47:50;;;;;;;;;14.75;14.25;;;;;;;;5032480;27;8871;-76
2022/10/14 01:50:19;;;;;;;;;14.75;13.50;;;;;;;;5027512;27;8832;-77
2022/10/14 01:52:50;;;;;;;;;13.25;12.75;;;;;;;;5037951;27;8861;-77
2022/10/14 01:55:21;;;;;;;;;15.75;14.50;;;;;;;;5016964;28;9657;-77
2022/10/14 01:57:50;;;;;;;;;11.50;11.50;;;;;;;;5065721;27;8855;-77
2022/10/14 02:00:20;;;;;;;;;13.25;13.25;;;;;;;;5016749;27;8998;-77
2022/10/14 02:02:47;;;;;;;;;12.00;11.75;;;;;;;;5017440;27;8857;-77
2022/10/14 02:05:19;;;;;;;;;13.25;12.00;;;;;;;;5028839;27;8811;-76
2022/10/14 02:07:48;;;;;;;;;10.75;9.50;;;;;;;;5037932;27;8879;-76
2022/10/14 02:10:25;;;;;;;;;15.25;12.50;;;;;;;;5017949;27;8933;-77
2022/10/14 02:13:05;;;;;;;;;8.25;8.25;;;;;;;;5056526;27;8895;-75
2022/10/14 02:15:46;;;;;;;;;14.25;14.25;;;;;;;;5039236;27;9638;-77
2022/10/14 02:18:17;;;;;;;;;13.00;11.00;;;;;;;;5038544;27;8857;-77
2022/10/14 02:20:50;;;;;;;;;8.00;8.00;;;;;;;;5034636;27;8819;-77
2022/10/14 02:23:21;;;;;;;;;7.75;7.75;;;;;;;;5027378;27;8876;-77
2022/10/14 02:25:50;;;;;;;;;10.50;9.00;;;;;;;;5039237;27;8945;-77
2022/10/14 02:28:19;;;;;;;;;12.00;9.00;;;;;;;;5021324;27;8829;-77
2022/10/14 02:30:52;;;;;;;;;13.50;11.75;;;;;;;;5055532;27;8919;-75
2022/10/14 02:33:24;;;;;;;;;10.00;10.00;;;;;;;;5040612;27;8830;-75
2022/10/14 02:35:52;;;;;;;;;11.75;10.00;;;;;;;;5030723;27;8855;-76
2022/10/14 02:38:24;;;;;;;;;12.50;11.50;;;;;;;;5039084;27;8872;-76
2022/10/14 02:40:52;;;;;;;;;9.75;8.00;;;;;;;;5043035;27;9652;-76
2022/10/14 02:43:19;;;;;;;;;9.00;9.00;;;;;;;;5033302;27;8963;-75
2022/10/14 02:45:49;;;;;;;;;7.75;7.00;;;;;;;;5027230;27;8857;-76
2022/10/14 02:48:16;;;;;;;;;11.75;11.00;;;;;;;;5034114;27;8854;-78
2022/10/14 02:50:44;;;;;;;;;5.75;5.75;;;;;;;;5038163;27;8865;-76
2022/10/14 02:53:15;;;;;;;;;10.25;9.00;;;;;;;;5020245;28;8836;-75
2022/10/14 02:55:42;;;;;;;;;6.50;5.00;;;;;;;;5036979;27;8873;-76
2022/10/14 02:58:10;;;;;;;;;13.00;9.75;;;;;;;;5035318;27;8861;-76
2022/10/14 03:00:37;;;;;;;;;11.75;11.75;;;;;;;;5030832;27;8842;-75
2022/10/14 03:03:06;;;;;;;;;11.00;10.00;;;;;;;;5020490;27;8853;-76
2022/10/14 03:05:34;;;;;;;;;6.75;6.75;;;;;;;;5044577;27;8919;-76
2022/10/14 03:08:01;;;;;;;;;8.50;8.50;;;;;;;;5038699;27;9361;-76
2022/10/14 03:10:28;;;;;;;;;8.50;8.50;;;;;;;;5011832;27;8886;-75
2022/10/14 03:12:56;;;;;;;;;8.75;8.75;;;;;;;;5028977;27;8843;-75
2022/10/14 03:15:26;;;;;;;;;12.50;10.75;;;;;;;;5038337;27;10000;-76
2022/10/14 03:17:56;;;;;;;;;6.00;6.00;;;;;;;;5020285;27;8869;-75
2022/10/14 03:20:28;;;;;;;;;12.50;7.00;;;;;;;;5035244;27;8954;-80
2022/10/14 03:22:56;;;;;;;;;8.00;7.00;;;;;;;;5046317;27;8886;-77
2022/10/14 03:25:26;;;;;;;;;6.75;6.75;;;;;;;;5034422;27;8857;-76
2022/10/14 03:27:54;;;;;;;;;9.00;6.75;;;;;;;;5035691;27;8853;-76
2022/10/14 03:30:22;;;;;;;;;7.75;7.75;;;;;;;;5021273;27;8979;-77
2022/10/14 03:32:49;;;;;;;;;7.00;7.00;;;;;;;;5047756;27;8827;-77
2022/10/14 03:35:17;;;;;;;;;7.25;7.25;;;;;;;;5046130;27;8853;-77
2022/10/14 03:37:46;;;;;;;;;8.00;8.00;;;;;;;;5019362;27;8881;-76
2022/10/14 03:40:14;;;;;;;;;6.00;5.50;;;;;;;;5017794;28;8849;-76
2022/10/14 03:42:42;;;;;;;;;6.50;6.50;;;;;;;;5038396;28;9643;-76
2022/10/14 03:45:11;;;;;;;;;6.25;6.25;;;;;;;;5039134;27;8849;-76
2022/10/14 03:47:38;;;;;;;;;7.50;6.00;;;;;;;;5031048;27;8822;-77
2022/10/14 03:50:06;;;;;;;;;5.00;5.00;;;;;;;;5034515;28;8874;-76
2022/10/14 03:52:33;;;;;;;;;6.75;6.00;;;;;;;;5041402;28;9000;-77
2022/10/14 03:55:02;;;;;;;;;5.00;5.00;;;;;;;;5050473;27;8896;-76
2022/10/14 03:57:30;;;;;;;;;5.00;5.00;;;;;;;;5039885;27;8857;-77
2022/10/14 03:59:57;;;;;;;;;5.50;5.00;;;;;;;;5023592;27;8905;-77
2022/10/14 04:02:25;;;;;;;;;4.00;4.00;;;;;;;;5021791;27;9689;-77
2022/10/14 04:05:04;;;;;;;;;5.00;5.00;;;;;;;;5052838;27;9027;-76
2022/10/14 04:07:32;;;;;;;;;3.50;3.50;;;;;;;;5018652;27;8864;-77
2022/10/14 04:10:01;;;;;;;;;6.25;6.25;;;;;;;;5042235;27;8838;-77
2022/10/14 04:12:28;;;;;;;;;4.75;4.75;;;;;;;;5034214;27;8829;-77
2022/10/14 04:14:56;;;;;;;;;4.00;4.00;;;;;;;;5059105;27;8893;-77
2022/10/14 04:17:24;;;;;;;;;6.00;5.00;;;;;;;;5012630;28;8847;-77
2022/10/14 04:19:53;;;;;;;;;4.25;3.25;;;;;;;;5029406;27;9030;-78
2022/10/14 04:22:21;;;;;;;;;2.00;2.00;;;;;;;;5035706;28;8843;-77
2022/10/14 04:24:49;;;;;;;;;4.75;3.00;;;;;;;;5029870;27;8862;-77
2022/10/14 04:27:18;;;;;;;;;1.00;1.00;;;;;;;;5025758;28;8858;-76
2022/10/14 04:29:45;;;;;;;;;6.25;5.00;;;;;;;;5022706;27;8845;-77
2022/10/14 04:32:14;;;;;;;;;5.00;3.75;;;;;;;;5025189;27;8869;-77
2022/10/14 04:34:41;;;;;;;;;5.75;4.00;;;;;;;;5040305;27;8837;-77
2022/10/14 04:37:09;;;;;;;;;3.00;3.00;;;;;;;;5045831;27;8865;-79
2022/10/14 04:39:36;;;;;;;;;5.25;4.00;;;;;;;;5017486;27;8849;-76
2022/10/14 04:42:03;;;;;;;;;4.75;4.00;;;;;;;;5040746;27;8849;-77
2022/10/14 04:44:32;;;;;;;;;3.75;3.25;;;;;;;;5024928;27;8827;-77
2022/10/14 04:47:00;;;;;;;;;3.75;3.75;;;;;;;;5038008;27;8963;-77
2022/10/14 04:49:28;;;;;;;;;3.25;3.25;;;;;;;;5022011;27;8982;-77
2022/10/14 04:51:55;;;;;;;;;4.00;4.00;;;;;;;;5036719;27;8841;-79
2022/10/14 04:54:23;;;;;;;;;4.25;4.00;;;;;;;;5047010;27;8834;-77
2022/10/14 04:56:51;;;;;;;;;3.50;3.50;;;;;;;;5027172;27;9000;-76
2022/10/14 04:59:19;;;;;;;;;6.75;5.00;;;;;;;;5032764;27;9612;-76
2022/10/14 05:01:48;;;;;;;;;5.75;5.75;;;;;;;;5009650;28;8883;-77
2022/10/14 05:04:16;;;;;;;;;5.00;5.00;;;;;;;;5036984;27;8843;-78
2022/10/14 05:06:43;;;;;;;;;5.00;5.00;;;;;;;;5026605;27;8987;-77
2022/10/14 05:09:11;;;;;;;;;4.00;4.00;;;;;;;;5047178;27;8884;-76
2022/10/14 05:11:38;;;;;;;;;4.75;4.75;;;;;;;;5049700;27;8858;-77
2022/10/14 05:14:06;;;;;;;;;5.75;4.25;;;;;;;;5041434;27;8892;-77
2022/10/14 05:16:33;;;;;;;;;7.50;6.00;;;;;;;;5032483;27;8845;-77
2022/10/14 05:19:02;;;;;;;;;5.25;3.25;;;;;;;;5035999;27;9009;-77
2022/10/14 05:21:30;;;;;;;;;5.25;5.25;;;;;;;;5040025;27;9027;-78
2022/10/14 05:23:57;;;;;;;;;10.25;7.00;;;;;;;;5050318;27;8977;-77
2022/10/14 05:26:24;;;;;;;;;6.75;5.75;;;;;;;;5025607;27;8867;-78
2022/10/14 05:28:52;;;;;;;;;5.75;5.00;;;;;;;;5026733;27;8849;-77
2022/10/14 05:31:20;;;;;;;;;5.00;5.00;;;;;;;;5055364;27;8841;-76
2022/10/14 05:33:47;;;;;;;;;5.25;5.25;;;;;;;;5073151;27;8883;-77
2022/10/14 05:36:16;;;;;;;;;4.25;4.25;;;;;;;;5032879;27;8869;-78
2022/10/14 05:38:44;;;;;;;;;6.00;6.00;;;;;;;;5030725;27;8899;-77
2022/10/14 05:41:12;;;;;;;;;4.50;4.50;;;;;;;;5048901;27;8873;-77
2022/10/14 05:43:40;;;;;;;;;5.00;5.00;;;;;;;;5046692;27;8825;-78
2022/10/14 05:46:07;;;;;;;;;6.50;6.50;;;;;;;;5034163;27;8873;-78
2022/10/14 05:48:35;;;;;;;;;1.00;1.00;;;;;;;;5022706;28;8874;-78
2022/10/14 05:51:02;;;;;;;;;4.75;4.75;;;;;;;;5034734;27;8836;-78
2022/10/14 05:53:32;;;;;;;;;6.00;6.00;;;;;;;;5034989;27;8858;-78
2022/10/14 05:56:04;;;;;;;;;8.50;7.75;;;;;;;;5024703;27;8883;-78
2022/10/14 05:58:32;;;;;;;;;5.00;5.00;;;;;;;;5029494;27;8863;-79
2022/10/14 06:01:00;;;;;;;;;6.25;6.25;;;;;;;;5021420;28;8946;-79
2022/10/14 06:03:28;;;;;;;;;7.25;7.25;;;;;;;;5025888;27;8869;-78
2022/10/14 06:05:56;;;;;;;;;4.75;4.75;;;;;;;;5050281;27;8941;-77
2022/10/14 06:08:26;;;;;;;;;7.00;6.00;;;;;;;;5030466;27;9642;-77
2022/10/14 06:10:57;;;;;;;;;6.25;6.00;;;;;;;;5025186;27;8875;-78
2022/10/14 06:13:24;;;;;;;;;6.00;6.00;;;;;;;;5023234;27;8853;-77
2022/10/14 06:15:53;;;;;;;;;6.50;6.50;;;;;;;;5045121;27;8849;-77
2022/10/14 06:18:21;;;;;;;;;5.00;5.00;;;;;;;;5019500;28;8857;-74
2022/10/14 06:20:53;;;;;;;;;7.00;7.00;;;;;;;;5024362;27;8833;-73
2022/10/14 06:23:20;;;;;;;;;9.75;6.75;;;;;;;;5029452;27;8837;-75
2022/10/14 06:25:48;;;;;;;;;6.75;5.50;;;;;;;;5018606;27;8870;-74
2022/10/14 06:28:20;;;;;;;;;8.25;6.50;;;;;;;;5022072;27;8833;-74
2022/10/14 06:30:50;;;;;;;;;6.75;6.75;;;;;;;;5052312;27;8859;-74
2022/10/14 06:33:17;;;;;;;;;12.00;10.25;;;;;;;;5024693;27;8849;-74
2022/10/14 06:35:45;;;;;;;;;8.25;7.00;;;;;;;;5028395;27;8901;-76
2022/10/14 06:38:13;;;;;;;;;7.00;7.00;;;;;;;;5027586;27;8850;-74
2022/10/14 06:40:41;;;;;;;;;6.50;6.50;;;;;;;;5030027;27;8860;-74
2022/10/14 06:43:08;;;;;;;;;7.50;5.50;;;;;;;;5018333;27;8879;-76
2022/10/14 06:45:37;;;;;;;;;5.50;5.50;;;;;;;;5018274;27;8849;-73
2022/10/14 06:48:05;;;;;;;;;4.75;4.75;;;;;;;;5026627;27;9204;-75
2022/10/14 06:50:32;;;;;;;;;9.50;6.75;;;;;;;;5025218;28;8990;-75
2022/10/14 06:53:00;;;;;;;;;6.00;5.00;;;;;;;;5036014;27;8981;-75
2022/10/14 06:55:27;;;;;;;;;6.25;6.25;;;;;;;;5024827;27;8845;-74
2022/10/14 06:57:55;;;;;;;;;5.00;5.00;;;;;;;;5023795;27;8955;-75
2022/10/14 07:00:28;;;;;;;;;6.00;6.00;;;;;;;;5033562;27;8835;-76
2022/10/14 07:02:58;;;;;;;;;7.00;7.00;;;;;;;;5021608;27;8849;-75
2022/10/14 07:05:27;;;;;;;;;5.25;5.25;;;;;;;;5021889;27;8817;-75
2022/10/14 07:07:54;;;;;;;;;6.00;6.00;;;;;;;;5023597;27;8879;-74
2022/10/14 07:10:22;;;;;;;;;7.25;7.00;;;;;;;;5036265;27;8872;-75
2022/10/14 07:12:53;;;;;;;;;9.00;9.00;;;;;;;;5011713;27;8853;-73
2022/10/14 07:15:21;;;;;;;;;7.25;7.25;;;;;;;;5044470;27;9038;-78
2022/10/14 07:17:48;;;;;;;;;8.50;8.50;;;;;;;;5031464;27;8854;-75
2022/10/14 07:20:17;;;;;;;;;9.25;9.25;;;;;;;;5037610;27;8841;-75
2022/10/14 07:22:44;;;;;;;;;10.25;8.25;;;;;;;;5037021;27;8881;-75
2022/10/14 07:25:12;;;;;;;;;8.50;8.50;;;;;;;;5019078;27;8873;-74
2022/10/14 07:27:40;;;;;;;;;9.50;8.50;;;;;;;;5033386;27;8864;-74
2022/10/14 07:30:09;;;;;;;;;8.00;7.00;;;;;;;;5019255;27;8930;-74
2022/10/14 07:32:36;;;;;;;;;10.50;10.50;;;;;;;;5031810;27;8844;-73
2022/10/14 07:35:04;;;;;;;;;11.50;10.50;;;;;;;;5022547;27;9250;-73
2022/10/14 07:37:33;;;;;;;;;11.00;10.50;;;;;;;;5031701;27;9005;-73
2022/10/14 07:40:00;;;;;;;;;8.00;8.00;;;;;;;;5035061;27;8876;-74
2022/10/14 07:42:28;;;;;;;;;8.75;7.50;;;;;;;;5016062;27;8943;-76
2022/10/14 07:44:56;;;;;;;;;9.25;9.25;;;;;;;;5033095;27;8861;-76
2022/10/14 07:47:24;;;;;;;;;9.25;9.25;;;;;;;;5031171;27;8868;-76
2022/10/14 07:49:51;;;;;;;;;8.25;6.75;;;;;;;;5024093;27;8845;-75
2022/10/14 07:52:19;;;;;;;;;6.25;6.25;;;;;;;;5035129;28;9607;-76
2022/10/14 07:54:48;;;;;;;;;11.25;7.25;;;;;;;;5020901;27;9617;-78
2022/10/14 07:57:16;;;;;;;;;5.25;5.25;;;;;;;;5036916;28;8915;-76
2022/10/14 07:59:45;;;;;;;;;6.75;5.75;;;;;;;;5026367;27;8870;-75
2022/10/14 08:02:12;;;;;;;;;6.75;6.00;;;;;;;;5054305;27;8923;-76
2022/10/14 08:04:40;;;;;;;;;5.50;5.50;;;;;;;;5025808;27;8841;-77
2022/10/14 08:07:08;;;;;;;;;5.25;4.00;;;;;;;;5039631;27;8969;-77
2022/10/14 08:09:36;;;;;;;;;3.25;3.00;;;;;;;;5068612;27;8853;-77
2022/10/14 08:12:06;;;;;;;;;4.50;4.50;;;;;;;;5037329;28;8878;-78
2022/10/14 08:14:34;;;;;;;;;4.00;4.00;;;;;;;;5042353;27;8914;-77
2022/10/14 08:17:02;;;;;;;;;4.00;2.25;;;;;;;;5057738;27;8851;-78
2022/10/14 08:19:29;;;;;;;;;6.00;4.00;;;;;;;;5041909;27;8896;-78
2022/10/14 08:21:57;;;;;;;;;4.00;4.00;;;;;;;;5041439;27;8813;-82
2022/10/14 08:24:24;;;;;;;;;1.00;1.00;;;;;;;;5041305;27;8880;-80
2022/10/14 08:26:56;;;;;;;;;1.00;1.00;;;;;;;;5084000;27;8905;-75
2022/10/14 08:29:26;;;;;;;;;4.25;2.75;;;;;;;;5036237;27;8858;-78
2022/10/14 08:31:54;;;;;;;;;5.00;3.25;;;;;;;;5017800;28;9640;-79
2022/10/14 08:34:23;;;;;;;;;3.25;3.25;;;;;;;;5032192;27;8888;-78
2022/10/14 08:36:51;;;;;;;;;2.00;2.00;;;;;;;;5023313;27;8880;-78
2022/10/14 08:39:22;;;;;;;;;2.00;2.00;;;;;;;;5040040;27;9647;-78
2022/10/14 08:42:15;;;;;;;;;6.75;5.00;;;;;;;;5016495;27;9392;-77
2022/10/14 08:44:47;;;;;;;;;8.00;5.25;;;;;;;;5038293;27;8843;-77
2022/10/14 08:47:17;;;;;;;;;4.50;4.50;;;;;;;;5021144;27;8845;-75
2022/10/14 08:49:53;;;;;;;;;4.75;4.75;;;;;;;;5021318;27;8849;-76
2022/10/14 08:52:25;;;;;;;;;4.50;4.50;;;;;;;;5043771;27;8839;-76
2022/10/14 08:54:57;;;;;;;;;5.75;5.75;;;;;;;;5032929;27;8833;-76
2022/10/14 08:57:27;;;;;;;;;6.25;5.25;;;;;;;;5046725;27;8866;-73
2022/10/14 08:59:56;;;;;;;;;6.25;4.50;;;;;;;;5038691;27;8865;-75
2022/10/14 09:02:35;;;;;;;;;4.00;4.00;;;;;;;;5045151;27;8847;-76
2022/10/14 09:05:02;;;;;;;;;4.00;4.00;;;;;;;;5021146;27;8848;-75
2022/10/14 09:07:31;;;;;;;;;4.00;4.00;;;;;;;;5032784;27;8892;-74
2022/10/14 09:10:03;;;;;;;;;4.00;4.00;;;;;;;;5040441;27;8887;-74
2022/10/14 09:12:33;;;;;;;;;3.25;3.25;;;;;;;;5010843;27;8877;-75
2022/10/14 09:15:10;;;;;;;;;1.25;1.25;;;;;;;;5020124;27;8852;-75
2022/10/14 09:17:41;;;;;;;;;1.75;1.75;;;;;;;;5035299;27;8872;-73
2022/10/14 09:20:19;;;;;;;;;2.00;2.00;;;;;;;;5064733;27;8873;-76
2022/10/14 09:23:01;;;;;;;;;2.25;2.00;;;;;;;;5019578;27;8863;-82
2022/10/14 09:25:34;;;;;;;;;3.00;1.00;;;;;;;;5034000;27;8854;-84
2022/10/14 09:28:02;;;;;;;;;1.00;1.00;;;;;;;;5055162;27;8846;-76
2022/10/14 09:30:37;;;;;;;;;2.00;2.00;;;;;;;;5042859;27;8839;-80
2022/10/14 09:33:06;;;;;;;;;2.00;2.00;;;;;;;;5025445;27;8914;-77
2022/10/14 09:35:35;;;;;;;;;2.00;2.00;;;;;;;;5032440;27;8883;-76
2022/10/14 09:38:03;;;;;;;;;2.00;2.00;;;;;;;;5030566;27;8882;-79
2022/10/14 09:40:32;;;;;;;;;2.25;2.00;;;;;;;;5048744;27;9018;-80
2022/10/14 09:43:03;;;;;;;;;2.00;2.00;;;;;;;;5044338;27;8944;-80
2022/10/14 09:45:52;;;;;;;;;2.75;2.00;;;;;;;;5036865;27;9634;-80
2022/10/14 09:48:26;;;;;;;;;3.00;3.00;;;;;;;;5030957;27;9626;-81
2022/10/14 09:50:55;;;;;;;;;2.00;2.00;;;;;;;;5033661;27;8971;-82
2022/10/14 09:53:28;;;;;;;;;2.00;2.00;;;;;;;;5033135;27;9405;-81
2022/10/14 09:55:58;;;;;;;;;3.00;3.00;;;;;;;;5042394;27;8845;-81
2022/10/14 09:58:30;;;;;;;;;3.00;3.00;;;;;;;;5034535;27;8826;-80
2022/10/14 10:01:01;;;;;;;;;3.00;3.00;;;;;;;;5039463;27;8849;-82
2022/10/14 10:03:31;;;;;;;;;4.75;4.00;;;;;;;;5041478;27;8841;-81
2022/10/14 10:06:05;;;;;;;;;2.00;2.00;;;;;;;;5034142;27;8960;-78
2022/10/14 10:08:33;;;;;;;;;4.00;4.00;;;;;;;;5035081;27;8853;-77
2022/10/14 10:11:04;;;;;;;;;2.00;2.00;;;;;;;;5040934;27;8858;-80
2022/10/14 10:13:43;;;;;;;;;2.00;2.00;;;;;;;;5034143;27;9023;-80
2022/10/14 10:16:30;;;;;;;;;3.00;3.00;;;;;;;;5030690;27;8843;-80
2022/10/14 10:19:00;;;;;;;;;3.75;3.75;;;;;;;;5041299;27;9803;-74
2022/10/14 10:21:29;;;;;;;;;4.00;4.00;;;;;;;;5040715;27;8855;-78
2022/10/14 10:23:59;;;;;;;;;3.25;3.25;;;;;;;;5055730;27;8869;-76
2022/10/14 10:26:30;;;;;;;;;5.00;5.00;;;;;;;;5050555;27;8861;-75
2022/10/14 10:28:58;;;;;;;;;2.25;2.25;;;;;;;;5028183;27;8842;-75
2022/10/14 10:31:46;;;;;;;;;3.50;3.00;;;;;;;;5043829;27;8856;-75
2022/10/14 10:34:53;;;;;;;;;4.00;4.00;;;;;;;;5035898;27;8933;-76
2022/10/14 10:37:27;;;;;;;;;5.75;4.00;;;;;;;;5018919;27;8815;-75
2022/10/14 10:40:31;;;;;;;;;2.50;2.50;;;;;;;;5032346;27;9577;-78
2022/10/14 10:43:35;;;;;;;;;6.00;4.50;;;;;;;;5051925;27;9747;-75
2022/10/14 10:46:15;;;;;;;;;5.00;5.00;;;;;;;;5036806;27;8865;-77
2022/10/14 10:48:46;;;;;;;;;2.75;2.75;;;;;;;;5023228;27;8871;-78
2022/10/14 10:51:17;;;;;;;;;6.75;6.75;;;;;;;;5060818;27;8992;-75
2022/10/14 10:53:55;;;;;;;;;4.25;4.00;;;;;;;;5031114;27;8891;-76
2022/10/14 10:56:32;;;;;;;;;3.75;3.25;;;;;;;;5041588;27;9000;-76
2022/10/14 10:59:16;;;;;;;;;4.00;4.00;;;;;;;;5045117;27;8846;-76
2022/10/14 11:01:50;;;;;;;;;4.00;4.00;;;;;;;;5027000;27;8857;-76
2022/10/14 11:04:30;;;;;;;;;5.50;5.50;;;;;;;;5025509;28;8826;-77
2022/10/14 11:12:49;;;;;;;;;5.75;5.75;;;;;;;;5043260;27;8852;-76
2022/10/14 11:15:39;;;;;;;;;3.00;3.00;;;;;;;;5036919;27;8861;-78
2022/10/14 11:18:13;;;;;;;;;4.00;4.00;;;;;;;;5062959;27;9661;-75
2022/10/14 11:20:55;;;;;;;;;4.75;3.50;;;;;;;;5032761;27;8857;-76
2022/10/14 11:23:38;;;;;;;;;6.00;4.25;;;;;;;;5029218;27;8881;-75
2022/10/14 11:26:17;;;;;;;;;5.00;5.00;;;;;;;;5038940;27;8856;-75
2022/10/14 11:28:51;;;;;;;;;6.00;4.00;;;;;;;;5036248;27;8905;-77
2022/10/14 11:31:32;;;;;;;;;5.50;5.25;;;;;;;;5049978;27;8857;-81
2022/10/14 11:34:14;;;;;;;;;4.25;4.25;;;;;;;;5034019;27;8988;-76
2022/10/14 11:36:54;;;;;;;;;3.50;3.50;;;;;;;;5045244;27;9654;-75
2022/10/14 11:39:32;;;;;;;;;4.00;4.00;;;;;;;;5040643;27;8833;-77
2022/10/14 11:42:12;;;;;;;;;2.00;2.00;;;;;;;;5045716;27;9631;-75
2022/10/14 11:44:41;;;;;;;;;3.50;3.50;;;;;;;;5049110;27;8839;-75
2022/10/14 11:47:13;;;;;;;;;3.50;3.50;;;;;;;;5027771;27;8902;-76
2022/10/14 11:49:46;;;;;;;;;1.50;1.50;;;;;;;;5040634;28;10064;-75
2022/10/14 11:52:20;;;;;;;;;2.50;2.50;;;;;;;;5051561;28;8812;-74
2022/10/14 11:55:04;;;;;;;;;5.00;3.00;;;;;;;;5020561;27;8853;-74
2022/10/14 11:57:37;;;;;;;;;4.00;3.00;;;;;;;;5048025;28;8858;-74
2022/10/14 12:02:54;;;;;;;;;3.00;2.00;;;;;;;;5038632;27;9711;-71
2022/10/14 12:05:25;;;;;;;;;1.50;1.25;;;;;;;;5048136;28;8845;-73
2022/10/14 12:08:05;;;;;;;;;1.00;1.00;;;;;;;;5025911;28;8974;-75
2022/10/14 12:10:36;;;;;;;;;1.50;1.50;;;;;;;;5019126;28;9027;-73
2022/10/14 12:13:06;;;;;;;;;2.00;2.00;;;;;;;;5036011;27;8850;-74
2022/10/14 12:15:35;;;;;;;;;1.00;1.00;;;;;;;;5026220;28;8842;-72
2022/10/14 12:18:06;;;;;;;;;2.00;2.00;;;;;;;;5031211;27;8839;-74
2022/10/14 12:20:38;;;;;;;;;1.25;0.00;;;;;;;;5013404;28;8899;-74
2022/10/14 12:23:10;;;;;;;;;1.00;1.00;;;;;;;;5033896;28;9618;-74
2022/10/14 12:25:45;;;;;;;;;2.00;2.00;;;;;;;;5036674;27;8882;-75
2022/10/14 12:28:20;;;;;;;;;0.00;0.00;;;;;;;;5065143;27;8843;-75
2022/10/14 12:30:50;;;;;;;;;0.50;0.50;;;;;;;;5044508;27;8875;-76
2022/10/14 12:33:18;;;;;;;;;2.00;2.00;;;;;;;;5031694;28;8893;-75
2022/10/14 12:35:58;;;;;;;;;2.00;0.75;;;;;;;;5042532;28;8853;-75
2022/10/14 12:38:27;;;;;;;;;1.00;1.00;;;;;;;;5068359;27;8915;-75
2022/10/14 12:40:56;;;;;;;;;1.00;1.00;;;;;;;;5037237;28;8833;-75
2022/10/14 12:43:25;;;;;;;;;1.00;1.00;;;;;;;;5054722;27;8839;-78
2022/10/14 12:46:12;;;;;;;;;1.00;1.00;;;;;;;;5070128;27;9698;-77
2022/10/14 12:48:46;;;;;;;;;2.00;0.00;;;;;;;;5040930;28;8925;-75
2022/10/14 12:51:18;;;;;;;;;1.00;1.00;;;;;;;;5012099;27;8846;-77
2022/10/14 12:54:04;;;;;;;;;1.00;1.00;;;;;;;;5047214;28;8892;-76
2022/10/14 12:56:35;;;;;;;;;1.00;1.00;;;;;;;;5036054;28;8972;-77
2022/10/14 12:59:05;;;;;;;;;3.00;1.00;;;;;;;;5049058;28;8825;-79
2022/10/14 13:01:32;;;;;;;;;1.00;1.00;;;;;;;;5063114;27;8838;-77
2022/10/14 13:04:02;;;;;;;;;0.00;0.00;;;;;;;;5065291;27;8933;-77
2022/10/14 13:06:36;;;;;;;;;0.75;0.75;;;;;;;;5047764;27;9748;-79
2022/10/14 13:09:35;;;;;;;;;1.00;1.00;;;;;;;;5055274;27;8960;-77
2022/10/14 13:12:42;;;;;;;;;1.00;1.00;;;;;;;;5082113;28;9053;-77
2022/10/14 13:15:52;;;;;;;;;1.00;1.00;;;;;;;;5056795;27;8836;-74
2022/10/14 13:18:51;;;;;;;;;1.50;1.00;;;;;;;;5066100;27;8823;-78
2022/10/14 13:21:52;;;;;;;;;0.25;0.25;;;;;;;;4980585;28;8919;-78
2022/10/14 13:24:26;;;;;;;;;1.25;1.25;;;;;;;;5033792;27;8851;-80
2022/10/14 13:27:08;;;;;;;;;0.25;0.25;;;;;;;;5082792;27;8839;-77
2022/10/14 13:29:49;;;;;;;;;1.00;1.00;;;;;;;;5063956;27;8839;-76
2022/10/14 13:32:25;;;;;;;;;1.00;1.00;;;;;;;;5056737;27;9716;-77
2022/10/14 13:34:59;;;;;;;;;1.00;1.00;;;;;;;;5046213;27;8847;-77
2022/10/14 13:37:32;;;;;;;;;2.00;2.00;;;;;;;;5048559;27;8963;-77
2022/10/14 13:40:16;;;;;;;;;1.00;1.00;;;;;;;;5083058;27;8857;-76
2022/10/14 13:42:49;;;;;;;;;1.50;1.50;;;;;;;;5067421;27;8862;-77
2022/10/14 13:45:18;;;;;;;;;1.00;1.00;;;;;;;;5067729;27;8873;-76
2022/10/14 13:47:47;;;;;;;;;3.25;3.00;;;;;;;;5046813;27;8929;-76
2022/10/14 13:50:19;;;;;;;;;2.00;2.00;;;;;;;;5033070;27;8834;-78
2022/10/14 13:52:50;;;;;;;;;3.00;3.00;;;;;;;;5065784;27;8901;-76
2022/10/14 13:55:20;;;;;;;;;3.00;3.00;;;;;;;;5037083;27;8841;-76
2022/10/14 13:58:02;;;;;;;;;3.00;3.00;;;;;;;;5065470;27;8830;-77
2022/10/14 14:00:31;;;;;;;;;6.25;6.00;;;;;;;;5061222;27;8988;-77
2022/10/14 14:02:59;;;;;;;;;2.00;2.00;;;;;;;;5060587;27;8820;-76
2022/10/14 14:05:32;;;;;;;;;5.00;5.00;;;;;;;;5026785;27;8863;-77
2022/10/14 14:07:59;;;;;;;;;3.00;3.00;;;;;;;;5079417;27;8954;-77
2022/10/14 14:10:27;;;;;;;;;4.50;4.00;;;;;;;;5035784;27;9635;-77
2022/10/14 14:12:55;;;;;;;;;7.50;7.50;;;;;;;;5053193;27;8838;-77
2022/10/14 14:15:27;;;;;;;;;5.50;5.50;;;;;;;;5049552;27;8860;-78
2022/10/14 14:17:55;;;;;;;;;8.00;6.50;;;;;;;;5049680;27;8823;-78
2022/10/14 14:20:26;;;;;;;;;5.75;5.75;;;;;;;;5061544;27;9627;-77
2022/10/14 14:22:54;;;;;;;;;6.00;6.00;;;;;;;;5038564;27;8849;-78
2022/10/14 14:25:24;;;;;;;;;7.50;7.50;;;;;;;;5046901;27;8831;-78
2022/10/14 14:27:55;;;;;;;;;9.75;9.75;;;;;;;;5042913;27;8975;-79
2022/10/14 14:30:31;;;;;;;;;8.75;6.75;;;;;;;;5036110;27;8837;-78
2022/10/14 14:33:01;;;;;;;;;6.50;6.50;;;;;;;;5071570;27;8986;-78
2022/10/14 14:35:29;;;;;;;;;9.50;9.50;;;;;;;;5051503;27;8841;-78
2022/10/14 14:37:56;;;;;;;;;9.00;9.00;;;;;;;;5060754;27;8863;-78
2022/10/14 14:40:26;;;;;;;;;8.00;8.00;;;;;;;;5025976;27;8873;-77
2022/10/14 14:42:55;;;;;;;;;6.00;6.00;;;;;;;;5044100;27;8977;-77
2022/10/14 14:45:25;;;;;;;;;8.75;8.75;;;;;;;;5047489;27;8837;-76
2022/10/14 14:47:56;;;;;;;;;7.00;7.00;;;;;;;;5030849;27;8894;-77
2022/10/14 14:50:28;;;;;;;;;6.00;6.00;;;;;;;;5046174;27;8949;-78
2022/10/14 14:52:58;;;;;;;;;5.50;5.50;;;;;;;;5047972;27;8822;-77
2022/10/14 14:55:38;;;;;;;;;5.50;5.50;;;;;;;;5033550;27;8864;-77
2022/10/14 14:58:14;;;;;;;;;10.25;8.25;;;;;;;;5039419;27;8831;-77
2022/10/14 15:00:44;;;;;;;;;10.00;7.75;;;;;;;;5041736;27;8883;-77
2022/10/14 15:03:14;;;;;;;;;10.00;10.00;;;;;;;;5046256;27;8849;-77
2022/10/14 15:05:41;;;;;;;;;6.00;6.00;;;;;;;;5044455;27;8857;-78
2022/10/14 15:08:17;;;;;;;;;10.75;9.00;;;;;;;;5055136;27;8910;-77
2022/10/14 15:10:49;;;;;;;;;7.25;7.25;;;;;;;;5046517;27;8849;-78
2022/10/14 15:13:27;;;;;;;;;7.00;7.00;;;;;;;;5015473;27;8837;-78
2022/10/14 15:15:55;;;;;;;;;6.50;6.50;;;;;;;;5046822;27;8862;-78
2022/10/14 15:18:26;;;;;;;;;8.25;6.25;;;;;;;;5056233;27;8831;-78
2022/10/14 15:21:06;;;;;;;;;9.25;6.00;;;;;;;;5065070;27;8849;-78
2022/10/14 15:23:44;;;;;;;;;8.25;8.25;;;;;;;;5019322;27;9753;-83
2022/10/14 15:26:29;;;;;;;;;7.25;7.25;;;;;;;;5053297;27;8874;-76